sensor_id;sensor_type;location;lat;lon;timestamp;pressure;altitude;pressure_sealevel;temperature;humidity
26443;BME280;5563;52.296;6.806;2023-06-10T00:01:45;101442.63;;;19.36;48.55
26443;BME280;5563;52.296;6.806;2023-06-10T00:04:19;101434.31;;;19.29;48.92
26443;BME280;5563;52.296;6.806;2023-06-10T00:06:55;101430.91;;;19.19;49.23
26443;BME280;5563;52.296;6.806;2023-06-10T00:09:27;101435.28;;;19.12;48.74
26443;BME280;5563;52.296;6.806;2023-06-10T00:12:06;101433.72;;;19.02;49.67
26443;BME280;5563;52.296;6.806;2023-06-10T00:14:39;101432.50;;;18.96;49.85
26443;BME280;5563;52.296;6.806;2023-06-10T00:17:13;101436.88;;;18.89;49.88
26443;BME280;5563;52.296;6.806;2023-06-10T00:19:48;101448.53;;;18.82;50.93
26443;BME280;5563;52.296;6.806;2023-06-10T00:22:17;101440.56;;;18.80;50.15
26443;BME280;5563;52.296;6.806;2023-06-10T00:24:50;101440.03;;;18.77;50.11
26443;BME280;5563;52.296;6.806;2023-06-10T00:27:17;101422.47;;;18.73;50.50
26443;BME280;5563;52.296;6.806;2023-06-10T00:29:51;101430.06;;;18.69;50.43
26443;BME280;5563;52.296;6.806;2023-06-10T00:32:17;101430.53;;;18.65;50.40
26443;BME280;5563;52.296;6.806;2023-06-10T00:34:51;101424.94;;;18.58;50.97
26443;BME280;5563;52.296;6.806;2023-06-10T00:37:18;101423.56;;;18.54;51.79
26443;BME280;5563;52.296;6.806;2023-06-10T00:39:57;101427.75;;;18.49;52.20
26443;BME280;5563;52.296;6.806;2023-06-10T00:42:38;101433.25;;;18.39;53.50
26443;BME280;5563;52.296;6.806;2023-06-10T00:45:12;101441.59;;;18.28;53.18
26443;BME280;5563;52.296;6.806;2023-06-10T00:47:39;101441.00;;;18.16;53.78
26443;BME280;5563;52.296;6.806;2023-06-10T00:50:13;101450.75;;;18.09;54.18
26443;BME280;5563;52.296;6.806;2023-06-10T00:52:47;101445.81;;;18.05;53.63
26443;BME280;5563;52.296;6.806;2023-06-10T00:55:21;101444.28;;;18.02;53.95
26443;BME280;5563;52.296;6.806;2023-06-10T00:57:55;101442.75;;;18.00;54.26
26443;BME280;5563;52.296;6.806;2023-06-10T01:00:29;101435.13;;;17.95;53.78
26443;BME280;5563;52.296;6.806;2023-06-10T01:02:56;101448.44;;;17.97;54.34
26443;BME280;5563;52.296;6.806;2023-06-10T01:05:30;101449.09;;;17.91;54.02
26443;BME280;5563;52.296;6.806;2023-06-10T01:08:16;101454.81;;;17.88;54.57
26443;BME280;5563;52.296;6.806;2023-06-10T01:10:53;101446.47;;;17.81;54.62
26443;BME280;5563;52.296;6.806;2023-06-10T01:13:29;101447.66;;;17.79;55.12
26443;BME280;5563;52.296;6.806;2023-06-10T01:16:03;101433.38;;;17.69;54.58
26443;BME280;5563;52.296;6.806;2023-06-10T01:18:36;101444.56;;;17.74;55.21
26443;BME280;5563;52.296;6.806;2023-06-10T01:21:05;101446.16;;;17.67;55.35
26443;BME280;5563;52.296;6.806;2023-06-10T01:23:40;101457.66;;;17.69;54.96
26443;BME280;5563;52.296;6.806;2023-06-10T01:26:10;101456.56;;;17.62;55.60
26443;BME280;5563;52.296;6.806;2023-06-10T01:28:49;101439.63;;;17.52;55.20
26443;BME280;5563;52.296;6.806;2023-06-10T01:31:28;101449.13;;;17.56;56.31
26443;BME280;5563;52.296;6.806;2023-06-10T01:34:10;101454.66;;;17.54;56.27
26443;BME280;5563;52.296;6.806;2023-06-10T01:36:40;101466.59;;;17.52;56.71
26443;BME280;5563;52.296;6.806;2023-06-10T01:39:15;101463.50;;;17.47;56.93
26443;BME280;5563;52.296;6.806;2023-06-10T01:41:43;101461.09;;;17.44;56.89
26443;BME280;5563;52.296;6.806;2023-06-10T01:44:31;101453.06;;;17.34;57.35
26443;BME280;5563;52.296;6.806;2023-06-10T01:47:05;101459.44;;;17.33;57.39
26443;BME280;5563;52.296;6.806;2023-06-10T01:49:39;101457.38;;;17.27;57.75
26443;BME280;5563;52.296;6.806;2023-06-10T01:52:06;101452.00;;;17.27;58.45
26443;BME280;5563;52.296;6.806;2023-06-10T01:54:33;101453.44;;;17.21;58.61
26443;BME280;5563;52.296;6.806;2023-06-10T01:57:08;101450.50;;;17.15;57.94
26443;BME280;5563;52.296;6.806;2023-06-10T01:59:35;101463.13;;;17.14;58.43
26443;BME280;5563;52.296;6.806;2023-06-10T02:02:09;101465.13;;;17.12;58.75
26443;BME280;5563;52.296;6.806;2023-06-10T02:04:36;101470.28;;;17.06;58.98
26443;BME280;5563;52.296;6.806;2023-06-10T02:07:11;101464.50;;;17.01;59.31
26443;BME280;5563;52.296;6.806;2023-06-10T02:09:39;101466.75;;;16.96;58.97
26443;BME280;5563;52.296;6.806;2023-06-10T02:12:16;101454.34;;;16.85;59.24
26443;BME280;5563;52.296;6.806;2023-06-10T02:14:43;101468.50;;;16.87;59.46
26443;BME280;5563;52.296;6.806;2023-06-10T02:17:17;101459.34;;;16.80;59.97
26443;BME280;5563;52.296;6.806;2023-06-10T02:19:45;101461.47;;;16.77;60.46
26443;BME280;5563;52.296;6.806;2023-06-10T02:22:25;101453.00;;;16.72;60.63
26443;BME280;5563;52.296;6.806;2023-06-10T02:24:53;101452.44;;;16.68;60.61
26443;BME280;5563;52.296;6.806;2023-06-10T02:27:27;101467.03;;;16.66;60.44
26443;BME280;5563;52.296;6.806;2023-06-10T02:29:55;101458.41;;;16.62;60.96
26443;BME280;5563;52.296;6.806;2023-06-10T02:32:29;101457.75;;;16.60;61.36
26443;BME280;5563;52.296;6.806;2023-06-10T02:34:56;101460.31;;;16.52;61.42
26443;BME280;5563;52.296;6.806;2023-06-10T02:37:32;101472.47;;;16.56;61.47
26443;BME280;5563;52.296;6.806;2023-06-10T02:40:07;101468.53;;;16.51;61.98
26443;BME280;5563;52.296;6.806;2023-06-10T02:42:47;101466.00;;;16.49;61.72
26443;BME280;5563;52.296;6.806;2023-06-10T02:45:21;101440.22;;;16.37;62.33
26443;BME280;5563;52.296;6.806;2023-06-10T02:47:49;101467.25;;;16.45;62.07
26443;BME280;5563;52.296;6.806;2023-06-10T02:50:23;101466.84;;;16.40;62.39
26443;BME280;5563;52.296;6.806;2023-06-10T02:52:50;101467.13;;;16.37;61.88
26443;BME280;5563;52.296;6.806;2023-06-10T02:55:25;101468.25;;;16.35;62.78
26443;BME280;5563;52.296;6.806;2023-06-10T02:57:53;101471.81;;;16.35;63.12
26443;BME280;5563;52.296;6.806;2023-06-10T03:00:27;101467.41;;;16.34;63.31
26443;BME280;5563;52.296;6.806;2023-06-10T03:02:55;101460.03;;;16.27;63.10
26443;BME280;5563;52.296;6.806;2023-06-10T03:05:32;101467.84;;;16.30;63.64
26443;BME280;5563;52.296;6.806;2023-06-10T03:07:59;101472.69;;;16.26;63.19
26443;BME280;5563;52.296;6.806;2023-06-10T03:10:26;101470.97;;;16.25;64.03
26443;BME280;5563;52.296;6.806;2023-06-10T03:13:00;101464.47;;;16.18;64.03
26443;BME280;5563;52.296;6.806;2023-06-10T03:15:27;101473.53;;;16.17;64.11
26443;BME280;5563;52.296;6.806;2023-06-10T03:18:02;101482.47;;;16.17;63.95
26443;BME280;5563;52.296;6.806;2023-06-10T03:20:29;101479.06;;;16.15;64.50
26443;BME280;5563;52.296;6.806;2023-06-10T03:23:04;101482.19;;;16.11;64.72
26443;BME280;5563;52.296;6.806;2023-06-10T03:25:33;101472.00;;;16.05;64.92
26443;BME280;5563;52.296;6.806;2023-06-10T03:28:06;101460.69;;;15.92;65.01
26443;BME280;5563;52.296;6.806;2023-06-10T03:30:33;101463.69;;;15.89;65.02
26443;BME280;5563;52.296;6.806;2023-06-10T03:33:00;101491.00;;;16.03;65.64
26443;BME280;5563;52.296;6.806;2023-06-10T03:35:35;101493.09;;;16.00;65.48
26443;BME280;5563;52.296;6.806;2023-06-10T03:38:08;101480.38;;;15.92;65.54
26443;BME280;5563;52.296;6.806;2023-06-10T03:40:41;101486.31;;;15.96;65.30
26443;BME280;5563;52.296;6.806;2023-06-10T03:43:20;101491.84;;;15.94;65.45
26443;BME280;5563;52.296;6.806;2023-06-10T03:45:54;101490.56;;;15.89;65.87
26443;BME280;5563;52.296;6.806;2023-06-10T03:48:28;101484.78;;;15.84;65.78
26443;BME280;5563;52.296;6.806;2023-06-10T03:50:57;101485.44;;;15.86;66.35
26443;BME280;5563;52.296;6.806;2023-06-10T03:53:31;101504.28;;;15.86;66.34
26443;BME280;5563;52.296;6.806;2023-06-10T03:55:58;101499.03;;;15.84;66.31
26443;BME280;5563;52.296;6.806;2023-06-10T03:58:31;101498.22;;;15.84;66.36
26443;BME280;5563;52.296;6.806;2023-06-10T04:01:05;101497.50;;;15.82;66.51
26443;BME280;5563;52.296;6.806;2023-06-10T04:03:42;101499.34;;;15.81;66.56
26443;BME280;5563;52.296;6.806;2023-06-10T04:06:16;101490.69;;;15.78;66.59
26443;BME280;5563;52.296;6.806;2023-06-10T04:08:44;101489.41;;;15.72;66.83
26443;BME280;5563;52.296;6.806;2023-06-10T04:11:18;101484.91;;;15.73;66.57
26443;BME280;5563;52.296;6.806;2023-06-10T04:13:45;101495.38;;;15.76;66.68
26443;BME280;5563;52.296;6.806;2023-06-10T04:16:18;101493.84;;;15.73;66.99
26443;BME280;5563;52.296;6.806;2023-06-10T04:18:45;101489.13;;;15.75;66.56
26443;BME280;5563;52.296;6.806;2023-06-10T04:21:18;101491.41;;;15.80;66.91
26443;BME280;5563;52.296;6.806;2023-06-10T04:23:48;101485.63;;;15.75;66.83
26443;BME280;5563;52.296;6.806;2023-06-10T04:26:22;101499.47;;;15.80;66.68
26443;BME280;5563;52.296;6.806;2023-06-10T04:28:49;101489.03;;;15.77;66.75
26443;BME280;5563;52.296;6.806;2023-06-10T04:31:23;101495.22;;;15.77;67.09
26443;BME280;5563;52.296;6.806;2023-06-10T04:33:50;101491.81;;;15.75;66.87
26443;BME280;5563;52.296;6.806;2023-06-10T04:36:24;101502.72;;;15.83;67.50
26443;BME280;5563;52.296;6.806;2023-06-10T04:38:51;101520.72;;;15.92;67.17
26443;BME280;5563;52.296;6.806;2023-06-10T04:41:18;101513.34;;;15.94;66.98
26443;BME280;5563;52.296;6.806;2023-06-10T04:43:52;101515.91;;;15.96;66.48
26443;BME280;5563;52.296;6.806;2023-06-10T04:46:25;101515.19;;;15.94;66.79
26443;BME280;5563;52.296;6.806;2023-06-10T04:49:02;101522.66;;;16.00;66.62
26443;BME280;5563;52.296;6.806;2023-06-10T04:51:29;101521.56;;;16.02;66.74
26443;BME280;5563;52.296;6.806;2023-06-10T04:54:02;101519.44;;;16.06;67.23
26443;BME280;5563;52.296;6.806;2023-06-10T04:56:35;101516.88;;;16.14;66.79
26443;BME280;5563;52.296;6.806;2023-06-10T04:59:09;101519.13;;;16.18;66.92
26443;BME280;5563;52.296;6.806;2023-06-10T05:01:36;101515.03;;;16.24;66.09
26443;BME280;5563;52.296;6.806;2023-06-10T05:04:09;101510.34;;;16.26;65.98
26443;BME280;5563;52.296;6.806;2023-06-10T05:06:43;101508.94;;;16.32;66.15
26443;BME280;5563;52.296;6.806;2023-06-10T05:09:10;101506.09;;;16.33;65.94
26443;BME280;5563;52.296;6.806;2023-06-10T05:11:44;101510.47;;;16.34;65.99
26443;BME280;5563;52.296;6.806;2023-06-10T05:14:11;101513.88;;;16.36;66.05
26443;BME280;5563;52.296;6.806;2023-06-10T05:16:45;101506.91;;;16.43;65.93
26443;BME280;5563;52.296;6.806;2023-06-10T05:19:12;101510.31;;;16.45;66.12
26443;BME280;5563;52.296;6.806;2023-06-10T05:21:45;101512.47;;;16.51;65.74
26443;BME280;5563;52.296;6.806;2023-06-10T05:24:12;101512.00;;;16.56;65.33
26443;BME280;5563;52.296;6.806;2023-06-10T05:26:46;101515.25;;;16.59;65.89
26443;BME280;5563;52.296;6.806;2023-06-10T05:29:15;101509.56;;;16.62;65.30
26443;BME280;5563;52.296;6.806;2023-06-10T05:31:48;101515.38;;;16.67;65.69
26443;BME280;5563;52.296;6.806;2023-06-10T05:34:15;101515.63;;;16.74;65.84
26443;BME280;5563;52.296;6.806;2023-06-10T05:36:55;101519.59;;;16.79;65.14
26443;BME280;5563;52.296;6.806;2023-06-10T05:39:22;101508.50;;;16.82;65.14
26443;BME280;5563;52.296;6.806;2023-06-10T05:41:56;101513.56;;;16.95;64.96
26443;BME280;5563;52.296;6.806;2023-06-10T05:44:33;101519.19;;;17.01;64.06
26443;BME280;5563;52.296;6.806;2023-06-10T05:46:59;101508.72;;;16.98;64.93
26443;BME280;5563;52.296;6.806;2023-06-10T05:49:33;101522.72;;;17.11;64.63
26443;BME280;5563;52.296;6.806;2023-06-10T05:52:00;101513.63;;;17.12;63.54
26443;BME280;5563;52.296;6.806;2023-06-10T05:54:34;101513.31;;;17.15;63.51
26443;BME280;5563;52.296;6.806;2023-06-10T05:57:01;101511.59;;;17.24;63.81
26443;BME280;5563;52.296;6.806;2023-06-10T05:59:36;101527.69;;;17.34;64.11
26443;BME280;5563;52.296;6.806;2023-06-10T06:02:09;101514.91;;;17.36;63.80
26443;BME280;5563;52.296;6.806;2023-06-10T06:04:36;101507.38;;;17.39;62.75
26443;BME280;5563;52.296;6.806;2023-06-10T06:07:10;101516.53;;;17.46;63.38
26443;BME280;5563;52.296;6.806;2023-06-10T06:09:37;101523.16;;;17.61;62.44
26443;BME280;5563;52.296;6.806;2023-06-10T06:12:10;101526.09;;;17.68;62.37
26443;BME280;5563;52.296;6.806;2023-06-10T06:14:38;101526.78;;;17.70;62.48
26443;BME280;5563;52.296;6.806;2023-06-10T06:17:15;101529.38;;;17.79;62.23
26443;BME280;5563;52.296;6.806;2023-06-10T06:19:52;101533.72;;;17.90;62.35
26443;BME280;5563;52.296;6.806;2023-06-10T06:22:26;101521.06;;;17.90;61.78
26443;BME280;5563;52.296;6.806;2023-06-10T06:24:55;101532.50;;;18.02;61.24
26443;BME280;5563;52.296;6.806;2023-06-10T06:27:31;101534.41;;;18.09;61.21
26443;BME280;5563;52.296;6.806;2023-06-10T06:30:01;101527.53;;;18.15;60.90
26443;BME280;5563;52.296;6.806;2023-06-10T06:32:35;101526.75;;;18.22;60.23
26443;BME280;5563;52.296;6.806;2023-06-10T06:35:09;101521.91;;;18.26;60.42
26443;BME280;5563;52.296;6.806;2023-06-10T06:37:43;101531.59;;;18.37;59.95
26443;BME280;5563;52.296;6.806;2023-06-10T06:40:10;101522.75;;;18.44;58.70
26443;BME280;5563;52.296;6.806;2023-06-10T06:42:50;101532.22;;;18.48;59.04
26443;BME280;5563;52.296;6.806;2023-06-10T06:45:17;101527.19;;;18.53;59.60
26443;BME280;5563;52.296;6.806;2023-06-10T06:47:51;101525.84;;;18.57;60.08
26443;BME280;5563;52.296;6.806;2023-06-10T06:50:24;101529.66;;;18.64;59.79
26443;BME280;5563;52.296;6.806;2023-06-10T06:52:52;101526.28;;;18.70;60.38
26443;BME280;5563;52.296;6.806;2023-06-10T06:55:29;101523.66;;;18.78;58.12
26443;BME280;5563;52.296;6.806;2023-06-10T06:57:56;101525.41;;;18.87;58.49
26443;BME280;5563;52.296;6.806;2023-06-10T07:00:31;101529.66;;;18.98;57.04
26443;BME280;5563;52.296;6.806;2023-06-10T07:02:58;101531.53;;;19.05;57.33
26443;BME280;5563;52.296;6.806;2023-06-10T07:05:32;101523.78;;;19.10;58.05
26443;BME280;5563;52.296;6.806;2023-06-10T07:08:00;101530.09;;;19.19;58.55
26443;BME280;5563;52.296;6.806;2023-06-10T07:10:36;101528.44;;;19.26;57.14
26443;BME280;5563;52.296;6.806;2023-06-10T07:13:03;101537.47;;;19.34;57.28
26443;BME280;5563;52.296;6.806;2023-06-10T07:15:41;101536.47;;;19.44;56.04
26443;BME280;5563;52.296;6.806;2023-06-10T07:18:08;101552.53;;;19.53;56.19
26443;BME280;5563;52.296;6.806;2023-06-10T07:20:43;101543.28;;;19.64;54.17
26443;BME280;5563;52.296;6.806;2023-06-10T07:23:11;101543.78;;;19.67;54.38
26443;BME280;5563;52.296;6.806;2023-06-10T07:25:57;101542.97;;;19.75;55.25
26443;BME280;5563;52.296;6.806;2023-06-10T07:28:26;101550.44;;;19.81;55.17
26443;BME280;5563;52.296;6.806;2023-06-10T07:31:03;101551.63;;;19.86;54.58
26443;BME280;5563;52.296;6.806;2023-06-10T07:33:32;101526.75;;;19.83;54.66
26443;BME280;5563;52.296;6.806;2023-06-10T07:36:09;101535.03;;;19.97;54.97
26443;BME280;5563;52.296;6.806;2023-06-10T07:38:36;101549.28;;;20.15;53.61
26443;BME280;5563;52.296;6.806;2023-06-10T07:41:03;101558.13;;;20.25;53.40
26443;BME280;5563;52.296;6.806;2023-06-10T07:43:39;101555.75;;;20.38;52.44
26443;BME280;5563;52.296;6.806;2023-06-10T07:46:12;101552.03;;;20.48;52.68
26443;BME280;5563;52.296;6.806;2023-06-10T07:48:47;101544.59;;;20.58;52.69
26443;BME280;5563;52.296;6.806;2023-06-10T07:51:21;101549.63;;;20.69;53.17
26443;BME280;5563;52.296;6.806;2023-06-10T07:53:54;101548.59;;;20.86;51.80
26443;BME280;5563;52.296;6.806;2023-06-10T07:56:21;101560.91;;;21.04;51.87
26443;BME280;5563;52.296;6.806;2023-06-10T07:58:54;101557.66;;;21.17;50.07
26443;BME280;5563;52.296;6.806;2023-06-10T08:01:22;101566.28;;;21.28;51.36
26443;BME280;5563;52.296;6.806;2023-06-10T08:03:56;101552.34;;;21.31;50.92
26443;BME280;5563;52.296;6.806;2023-06-10T08:06:23;101568.69;;;21.54;51.07
26443;BME280;5563;52.296;6.806;2023-06-10T08:08:56;101565.78;;;21.64;48.78
26443;BME280;5563;52.296;6.806;2023-06-10T08:11:23;101559.44;;;21.71;49.35
26443;BME280;5563;52.296;6.806;2023-06-10T08:13:56;101565.66;;;21.88;50.19
26443;BME280;5563;52.296;6.806;2023-06-10T08:16:23;101558.25;;;22.04;48.45
26443;BME280;5563;52.296;6.806;2023-06-10T08:18:56;101559.28;;;22.26;48.38
26443;BME280;5563;52.296;6.806;2023-06-10T08:21:29;101551.81;;;22.42;49.47
26443;BME280;5563;52.296;6.806;2023-06-10T08:23:56;101544.38;;;22.59;48.12
26443;BME280;5563;52.296;6.806;2023-06-10T08:26:29;101554.75;;;22.93;46.30
26443;BME280;5563;52.296;6.806;2023-06-10T08:28:56;101558.56;;;23.27;47.19
26443;BME280;5563;52.296;6.806;2023-06-10T08:31:30;101554.81;;;23.58;44.67
26443;BME280;5563;52.296;6.806;2023-06-10T08:33:57;101554.41;;;23.75;43.22
26443;BME280;5563;52.296;6.806;2023-06-10T08:36:30;101562.97;;;23.93;43.37
26443;BME280;5563;52.296;6.806;2023-06-10T08:38:57;101565.69;;;23.93;41.61
26443;BME280;5563;52.296;6.806;2023-06-10T08:41:42;101556.59;;;24.01;43.24
26443;BME280;5563;52.296;6.806;2023-06-10T08:44:29;101548.31;;;24.09;43.45
26443;BME280;5563;52.296;6.806;2023-06-10T08:47:06;101529.53;;;24.20;43.15
26443;BME280;5563;52.296;6.806;2023-06-10T08:49:44;101554.63;;;24.58;40.65
26443;BME280;5563;52.296;6.806;2023-06-10T08:52:19;101553.91;;;24.71;40.87
26443;BME280;5563;52.296;6.806;2023-06-10T08:54:58;101553.56;;;24.80;41.64
26443;BME280;5563;52.296;6.806;2023-06-10T08:57:33;101563.34;;;24.96;40.98
26443;BME280;5563;52.296;6.806;2023-06-10T09:00:06;101551.41;;;25.03;40.20
26443;BME280;5563;52.296;6.806;2023-06-10T09:02:40;101545.38;;;25.14;39.90
26443;BME280;5563;52.296;6.806;2023-06-10T09:05:08;101529.19;;;25.06;39.69
26443;BME280;5563;52.296;6.806;2023-06-10T09:07:36;101555.53;;;25.27;38.75
26443;BME280;5563;52.296;6.806;2023-06-10T09:10:11;101546.59;;;25.39;39.09
26443;BME280;5563;52.296;6.806;2023-06-10T09:12:38;101546.66;;;25.52;39.25
26443;BME280;5563;52.296;6.806;2023-06-10T09:15:11;101552.38;;;25.71;38.06
26443;BME280;5563;52.296;6.806;2023-06-10T09:17:41;101544.38;;;25.69;38.63
26443;BME280;5563;52.296;6.806;2023-06-10T09:20:14;101541.50;;;25.84;38.77
26443;BME280;5563;52.296;6.806;2023-06-10T09:22:42;101537.31;;;26.01;37.98
26443;BME280;5563;52.296;6.806;2023-06-10T09:25:16;101537.16;;;26.15;38.13
26443;BME280;5563;52.296;6.806;2023-06-10T09:27:50;101540.34;;;26.32;37.80
26443;BME280;5563;52.296;6.806;2023-06-10T09:32:54;101542.03;;;26.46;36.69
26443;BME280;5563;52.296;6.806;2023-06-10T09:35:30;101533.19;;;26.57;36.36
26443;BME280;5563;52.296;6.806;2023-06-10T09:38:03;101538.44;;;26.72;35.89
26443;BME280;5563;52.296;6.806;2023-06-10T09:40:32;101532.34;;;26.83;35.85
26443;BME280;5563;52.296;6.806;2023-06-10T09:43:12;101542.00;;;26.98;34.99
26443;BME280;5563;52.296;6.806;2023-06-10T09:45:50;101528.31;;;27.05;33.45
26443;BME280;5563;52.296;6.806;2023-06-10T09:48:19;101537.97;;;27.07;34.77
26443;BME280;5563;52.296;6.806;2023-06-10T09:50:53;101531.03;;;26.98;33.13
26443;BME280;5563;52.296;6.806;2023-06-10T09:53:20;101524.91;;;27.09;35.04
26443;BME280;5563;52.296;6.806;2023-06-10T09:55:47;101522.78;;;27.18;33.51
26443;BME280;5563;52.296;6.806;2023-06-10T09:58:34;101520.88;;;27.31;33.13
26443;BME280;5563;52.296;6.806;2023-06-10T10:01:05;101530.75;;;27.32;33.35
26443;BME280;5563;52.296;6.806;2023-06-10T10:03:49;101529.22;;;27.49;34.18
26443;BME280;5563;52.296;6.806;2023-06-10T10:06:18;101522.97;;;27.74;33.71
26443;BME280;5563;52.296;6.806;2023-06-10T10:08:52;101513.91;;;27.80;30.82
26443;BME280;5563;52.296;6.806;2023-06-10T10:11:22;101524.63;;;27.81;30.64
26443;BME280;5563;52.296;6.806;2023-06-10T10:13:57;101522.25;;;27.91;32.37
26443;BME280;5563;52.296;6.806;2023-06-10T10:16:35;101523.47;;;28.02;32.82
26443;BME280;5563;52.296;6.806;2023-06-10T10:19:20;101516.97;;;27.90;31.41
26443;BME280;5563;52.296;6.806;2023-06-10T10:22:03;101514.66;;;27.93;31.43
26443;BME280;5563;52.296;6.806;2023-06-10T10:24:46;101506.16;;;28.01;31.68
26443;BME280;5563;52.296;6.806;2023-06-10T10:27:22;101518.69;;;28.22;32.68
26443;BME280;5563;52.296;6.806;2023-06-10T10:30:00;101507.16;;;28.38;32.28
26443;BME280;5563;52.296;6.806;2023-06-10T10:32:52;101502.53;;;28.63;32.19
26443;BME280;5563;52.296;6.806;2023-06-10T10:35:33;101509.78;;;28.76;30.39
26443;BME280;5563;52.296;6.806;2023-06-10T10:38:02;101501.63;;;28.87;32.31
26443;BME280;5563;52.296;6.806;2023-06-10T10:40:36;101508.81;;;28.70;30.16
26443;BME280;5563;52.296;6.806;2023-06-10T10:43:10;101503.13;;;28.65;31.28
26443;BME280;5563;52.296;6.806;2023-06-10T10:46:00;101508.56;;;28.72;30.73
26443;BME280;5563;52.296;6.806;2023-06-10T10:48:35;101512.25;;;28.84;30.06
26443;BME280;5563;52.296;6.806;2023-06-10T10:51:11;101509.72;;;28.82;29.82
26443;BME280;5563;52.296;6.806;2023-06-10T10:53:38;101506.50;;;28.85;29.27
26443;BME280;5563;52.296;6.806;2023-06-10T10:56:14;101500.19;;;29.03;29.07
26443;BME280;5563;52.296;6.806;2023-06-10T10:58:41;101496.16;;;29.05;29.19
26443;BME280;5563;52.296;6.806;2023-06-10T11:01:15;101505.44;;;29.11;29.76
26443;BME280;5563;52.296;6.806;2023-06-10T11:03:44;101497.56;;;29.14;27.62
26443;BME280;5563;52.296;6.806;2023-06-10T11:06:20;101500.47;;;29.19;27.21
26443;BME280;5563;52.296;6.806;2023-06-10T11:08:54;101491.72;;;29.40;28.17
26443;BME280;5563;52.296;6.806;2023-06-10T11:11:27;101500.19;;;29.57;27.99
26443;BME280;5563;52.296;6.806;2023-06-10T11:16:28;101499.84;;;29.65;26.50
26443;BME280;5563;52.296;6.806;2023-06-10T11:19:02;101496.25;;;29.64;25.96
26443;BME280;5563;52.296;6.806;2023-06-10T11:21:29;101487.41;;;29.62;27.42
26443;BME280;5563;52.296;6.806;2023-06-10T11:24:12;101490.66;;;29.41;25.77
26443;BME280;5563;52.296;6.806;2023-06-10T11:26:45;101493.88;;;29.20;26.39
26443;BME280;5563;52.296;6.806;2023-06-10T11:29:19;101486.63;;;29.26;26.44
26443;BME280;5563;52.296;6.806;2023-06-10T11:31:50;101480.50;;;29.42;26.76
26443;BME280;5563;52.296;6.806;2023-06-10T11:34:24;101481.91;;;29.62;28.33
26443;BME280;5563;52.296;6.806;2023-06-10T11:36:53;101488.16;;;29.99;25.42
26443;BME280;5563;52.296;6.806;2023-06-10T11:39:26;101493.09;;;30.20;24.38
26443;BME280;5563;52.296;6.806;2023-06-10T11:42:00;101486.38;;;30.05;24.36
26443;BME280;5563;52.296;6.806;2023-06-10T11:44:34;101486.38;;;30.05;23.81
26443;BME280;5563;52.296;6.806;2023-06-10T11:47:10;101480.78;;;30.23;23.46
26443;BME280;5563;52.296;6.806;2023-06-10T11:49:45;101485.44;;;30.11;23.20
26443;BME280;5563;52.296;6.806;2023-06-10T11:52:26;101487.88;;;29.89;23.14
26443;BME280;5563;52.296;6.806;2023-06-10T11:55:00;101481.50;;;29.77;24.32
26443;BME280;5563;52.296;6.806;2023-06-10T11:57:33;101487.81;;;29.96;22.88
26443;BME280;5563;52.296;6.806;2023-06-10T12:00:09;101480.53;;;30.01;23.99
26443;BME280;5563;52.296;6.806;2023-06-10T12:02:37;101481.63;;;30.23;23.00
26443;BME280;5563;52.296;6.806;2023-06-10T12:05:12;101474.00;;;30.25;22.21
26443;BME280;5563;52.296;6.806;2023-06-10T12:07:39;101485.72;;;30.32;22.43
26443;BME280;5563;52.296;6.806;2023-06-10T12:10:12;101478.81;;;30.30;22.86
26443;BME280;5563;52.296;6.806;2023-06-10T12:12:53;101468.88;;;30.40;22.47
26443;BME280;5563;52.296;6.806;2023-06-10T12:15:24;101463.47;;;30.57;22.20
26443;BME280;5563;52.296;6.806;2023-06-10T12:17:58;101462.88;;;30.55;22.67
26443;BME280;5563;52.296;6.806;2023-06-10T12:20:32;101463.47;;;30.57;23.44
26443;BME280;5563;52.296;6.806;2023-06-10T12:23:10;101465.28;;;30.86;23.58
26443;BME280;5563;52.296;6.806;2023-06-10T12:25:38;101462.28;;;30.88;21.26
26443;BME280;5563;52.296;6.806;2023-06-10T12:28:13;101454.88;;;30.88;22.26
26443;BME280;5563;52.296;6.806;2023-06-10T12:30:46;101445.72;;;30.99;21.72
26443;BME280;5563;52.296;6.806;2023-06-10T12:33:20;101456.41;;;30.96;21.09
26443;BME280;5563;52.296;6.806;2023-06-10T12:35:55;101451.28;;;30.88;20.97
26443;BME280;5563;52.296;6.806;2023-06-10T12:38:31;101446.97;;;30.92;22.07
26443;BME280;5563;52.296;6.806;2023-06-10T12:41:07;101441.34;;;30.87;22.23
26443;BME280;5563;52.296;6.806;2023-06-10T12:43:41;101445.28;;;30.91;21.18
26443;BME280;5563;52.296;6.806;2023-06-10T12:46:23;101448.84;;;31.03;20.47
26443;BME280;5563;52.296;6.806;2023-06-10T12:48:51;101450.78;;;30.91;22.36
26443;BME280;5563;52.296;6.806;2023-06-10T12:51:25;101439.69;;;31.14;22.51
26443;BME280;5563;52.296;6.806;2023-06-10T12:54:00;101439.09;;;31.23;21.63
26443;BME280;5563;52.296;6.806;2023-06-10T12:56:27;101443.59;;;31.29;22.13
26443;BME280;5563;52.296;6.806;2023-06-10T12:58:53;101436.75;;;31.43;21.70
26443;BME280;5563;52.296;6.806;2023-06-10T13:01:27;101445.41;;;31.63;20.95
26443;BME280;5563;52.296;6.806;2023-06-10T13:03:55;101444.34;;;31.64;21.59
26443;BME280;5563;52.296;6.806;2023-06-10T13:06:29;101436.69;;;31.55;21.48
26443;BME280;5563;52.296;6.806;2023-06-10T13:08:59;101437.94;;;31.47;22.75
26443;BME280;5563;52.296;6.806;2023-06-10T13:11:33;101439.28;;;31.45;22.02
26443;BME280;5563;52.296;6.806;2023-06-10T13:14:01;101432.00;;;31.27;21.82
26443;BME280;5563;52.296;6.806;2023-06-10T13:16:35;101429.53;;;31.14;23.18
26443;BME280;5563;52.296;6.806;2023-06-10T13:19:10;101435.50;;;31.34;22.08
26443;BME280;5563;52.296;6.806;2023-06-10T13:21:45;101431.34;;;31.48;21.84
26443;BME280;5563;52.296;6.806;2023-06-10T13:24:18;101427.91;;;31.41;21.55
26443;BME280;5563;52.296;6.806;2023-06-10T13:26:53;101415.41;;;31.50;21.27
26443;BME280;5563;52.296;6.806;2023-06-10T13:29:22;101415.06;;;31.63;22.57
26443;BME280;5563;52.296;6.806;2023-06-10T13:31:55;101412.47;;;32.02;22.31
26443;BME280;5563;52.296;6.806;2023-06-10T13:34:31;101415.81;;;32.04;21.01